createdAt,value
2022-08-17T00:01:45.527Z,72.00
2022-08-17T00:04:19.120Z,72.10
2022-08-17T00:06:49.118Z,72.70
2022-08-17T00:09:18.786Z,72.90
2022-08-17T00:12:35.091Z,73.00
2022-08-17T00:14:34.867Z,73.60
2022-08-17T00:17:03.636Z,72.30
2022-08-17T00:19:32.431Z,72.60
2022-08-17T00:22:32.715Z,72.40
2022-08-17T00:24:47.396Z,72.10
2022-08-17T00:27:14.076Z,71.90
2022-08-17T00:29:41.105Z,72.40
2022-08-17T00:33:14.381Z,72.80
2022-08-17T00:34:54.520Z,72.60
2022-08-17T00:37:21.186Z,72.60
2022-08-17T00:39:47.884Z,72.50
2022-08-17T00:42:18.892Z,72.40
2022-08-17T00:44:45.751Z,73.20
2022-08-17T00:47:12.504Z,72.10
2022-08-17T00:49:39.430Z,71.60
2022-08-17T00:52:15.218Z,71.70
2022-08-17T00:54:44.651Z,72.00
2022-08-17T00:57:21.276Z,71.80
2022-08-17T01:00:02.250Z,71.00
2022-08-17T01:02:34.985Z,70.90
2022-08-17T01:05:14.061Z,70.50
2022-08-17T01:07:42.772Z,70.50
2022-08-17T01:10:59.175Z,70.50
2022-08-17T01:13:02.423Z,70.50
2022-08-17T01:15:35.981Z,70.30
2022-08-17T01:18:04.478Z,70.20
2022-08-17T01:20:32.397Z,69.70
2022-08-17T01:23:16.431Z,69.50
2022-08-17T01:25:53.585Z,69.60
2022-08-17T01:28:36.385Z,69.50
2022-08-17T01:31:09.038Z,69.40
2022-08-17T01:33:36.530Z,69.10
2022-08-17T01:36:04.954Z,69.00
2022-08-17T01:38:31.922Z,69.00
2022-08-17T01:41:03.395Z,68.90
2022-08-17T01:43:32.649Z,68.70
2022-08-17T01:46:03.014Z,68.70
2022-08-17T01:48:38.214Z,69.00
2022-08-17T01:51:07.530Z,69.00
2022-08-17T01:53:42.416Z,70.10
2022-08-17T01:56:12.119Z,70.40
2022-08-17T01:58:40.165Z,70.60
2022-08-17T02:01:08.459Z,71.00
2022-08-17T02:03:36.724Z,71.50
2022-08-17T02:06:05.372Z,71.80
2022-08-17T02:08:39.025Z,73.40
2022-08-17T02:11:11.955Z,73.10
2022-08-17T02:13:39.145Z,73.90
2022-08-17T02:16:06.168Z,74.20
2022-08-17T02:18:33.106Z,74.20
2022-08-17T02:21:00.172Z,74.90
2022-08-17T02:23:30.281Z,74.50
2022-08-17T02:25:59.458Z,74.70
2022-08-17T02:28:28.282Z,75.20
2022-08-17T02:31:01.517Z,76.30
2022-08-17T02:33:43.022Z,77.50
2022-08-17T02:36:11.743Z,79.50
2022-08-17T02:38:39.743Z,79.80
2022-08-17T02:41:06.699Z,79.10
2022-08-17T02:43:33.730Z,79.20
2022-08-17T02:46:00.566Z,78.10
2022-08-17T02:48:30.955Z,77.80
2022-08-17T02:50:59.677Z,77.30
2022-08-17T02:53:26.689Z,77.40
2022-08-17T02:55:53.554Z,77.50
2022-08-17T02:58:34.417Z,77.30
2022-08-17T03:01:07.119Z,77.90
2022-08-17T03:03:34.217Z,78.40
2022-08-17T03:06:01.580Z,79.00
2022-08-17T03:08:28.625Z,79.70
2022-08-17T03:10:55.600Z,79.20
2022-08-17T03:13:22.583Z,79.00
2022-08-17T03:15:50.515Z,78.70
2022-08-17T03:18:25.786Z,79.10
2022-08-17T03:20:58.446Z,78.70
2022-08-17T03:23:27.264Z,78.80
2022-08-17T03:25:55.279Z,78.70
2022-08-17T03:28:23.446Z,78.80
2022-08-17T03:30:51.237Z,78.70
2022-08-17T03:33:18.942Z,78.80
2022-08-17T03:35:46.272Z,78.70
2022-08-17T03:38:15.823Z,78.40
2022-08-17T03:40:56.594Z,78.30
2022-08-17T03:43:25.804Z,78.40
2022-08-17T03:46:27.673Z,78.50
2022-08-17T03:49:16.217Z,78.30
2022-08-17T03:52:01.812Z,78.40
2022-08-17T03:54:47.314Z,78.30
2022-08-17T03:57:14.309Z,78.50
2022-08-17T03:59:41.574Z,78.70
2022-08-17T04:02:12.992Z,78.50
2022-08-17T04:04:39.948Z,78.90
2022-08-17T04:07:07.269Z,78.60
2022-08-17T04:09:34.515Z,78.80
2022-08-17T04:12:02.498Z,78.60
2022-08-17T04:14:36.345Z,78.70
2022-08-17T04:17:17.473Z,79.10
2022-08-17T04:19:45.199Z,78.80
2022-08-17T04:22:11.885Z,79.20
2022-08-17T04:24:58.881Z,78.90
2022-08-17T04:27:25.658Z,78.70
2022-08-17T04:29:55.474Z,78.70
2022-08-17T04:33:04.943Z,78.60
2022-08-17T04:35:09.860Z,78.60
2022-08-17T04:37:36.588Z,78.50
2022-08-17T04:40:22.727Z,78.60
2022-08-17T04:43:13.216Z,78.70
2022-08-17T04:45:55.469Z,78.90
2022-08-17T04:48:27.960Z,78.80
2022-08-17T04:51:04.836Z,78.90
2022-08-17T04:53:31.507Z,78.90
2022-08-17T04:55:59.034Z,78.60
2022-08-17T04:58:25.726Z,79.00
2022-08-17T05:00:52.942Z,79.30
2022-08-17T05:03:19.694Z,79.10
2022-08-17T05:05:49.456Z,79.20
2022-08-17T05:08:18.566Z,79.30
2022-08-17T05:10:45.803Z,79.60
2022-08-17T05:13:22.386Z,79.60
2022-08-17T05:15:52.707Z,79.50
2022-08-17T05:18:19.439Z,79.40
2022-08-17T05:20:46.684Z,79.30
2022-08-17T05:23:16.553Z,79.20
2022-08-17T05:25:48.806Z,79.30
2022-08-17T05:28:18.862Z,79.20
2022-08-17T05:30:50.816Z,79.10
2022-08-17T05:33:21.189Z,78.90
2022-08-17T05:35:49.995Z,79.10
2022-08-17T05:38:20.654Z,79.00
2022-08-17T05:40:48.201Z,79.40
2022-08-17T05:43:19.156Z,79.20
2022-08-17T05:46:16.760Z,79.20
2022-08-17T05:48:49.376Z,78.90
2022-08-17T05:51:39.646Z,78.90
2022-08-17T05:54:31.085Z,78.80
2022-08-17T05:57:31.649Z,78.70
2022-08-17T05:59:58.276Z,78.60
2022-08-17T06:02:47.971Z,78.70
2022-08-17T06:05:51.493Z,78.80
2022-08-17T06:08:25.835Z,78.50
2022-08-17T06:11:24.702Z,78.70
2022-08-17T06:14:18.724Z,78.80
2022-08-17T06:16:49.912Z,78.70
2022-08-17T06:19:33.546Z,78.70
2022-08-17T06:22:02.704Z,78.40
2022-08-17T06:24:35.974Z,78.40
2022-08-17T06:27:24.412Z,78.20
2022-08-17T06:30:00.914Z,78.20
2022-08-17T06:32:29.340Z,78.10
2022-08-17T06:34:58.316Z,78.10
2022-08-17T06:38:02.272Z,78.30
2022-08-17T06:40:55.919Z,78.10
2022-08-17T06:43:48.059Z,77.90
2022-08-17T06:46:36.723Z,77.90
2022-08-17T06:49:15.168Z,77.80
2022-08-17T06:51:48.667Z,78.30
2022-08-17T06:54:21.846Z,77.70
2022-08-17T06:57:01.398Z,77.20
2022-08-17T07:00:05.959Z,76.70
2022-08-17T07:03:10.541Z,76.90
2022-08-17T07:05:48.336Z,76.80
2022-08-17T07:08:26.399Z,76.90
2022-08-17T07:11:00.508Z,76.80
2022-08-17T07:13:38.061Z,77.60
2022-08-17T07:16:41.971Z,77.50
2022-08-17T07:19:10.789Z,77.00
2022-08-17T07:21:40.965Z,77.10
2022-08-17T07:24:26.204Z,77.20
2022-08-17T07:27:07.958Z,77.10
2022-08-17T07:29:49.405Z,77.00
2022-08-17T07:32:18.569Z,78.10
2022-08-17T07:35:23.177Z,76.80
2022-08-17T07:38:25.858Z,76.90
2022-08-17T07:41:05.124Z,77.00
2022-08-17T07:43:40.744Z,77.00
2022-08-17T07:46:30.012Z,76.70
2022-08-17T07:49:18.381Z,77.30
2022-08-17T07:51:47.818Z,77.10
2022-08-17T07:54:22.459Z,77.30
2022-08-17T07:57:13.237Z,76.90
2022-08-17T07:59:59.378Z,77.30
2022-08-17T08:02:40.939Z,77.80
2022-08-17T08:05:46.695Z,77.10
2022-08-17T08:08:43.090Z,77.60
2022-08-17T08:11:15.186Z,77.50
2022-08-17T08:13:45.650Z,77.10
2022-08-17T08:16:24.470Z,77.40
2022-08-17T08:18:57.167Z,77.30
2022-08-17T08:21:29.060Z,77.40
2022-08-17T08:24:09.694Z,77.30
2022-08-17T08:27:08.078Z,77.70
2022-08-17T08:29:59.092Z,77.70
2022-08-17T08:32:47.921Z,77.30
2022-08-17T08:35:42.065Z,77.20
2022-08-17T08:38:34.542Z,76.50
2022-08-17T08:41:16.368Z,77.00
2022-08-17T08:44:09.809Z,76.60
2022-08-17T08:47:14.367Z,76.00
2022-08-17T08:50:05.337Z,75.40
2022-08-17T08:52:44.083Z,75.80
2022-08-17T08:55:13.490Z,74.60
2022-08-17T08:57:51.674Z,72.20
2022-08-17T09:00:24.958Z,71.00
2022-08-17T09:03:20.019Z,71.70
2022-08-17T09:06:06.770Z,73.60
2022-08-17T09:09:15.714Z,73.40
2022-08-17T09:12:05.020Z,73.10
2022-08-17T09:14:45.114Z,72.90
2022-08-17T09:17:24.436Z,73.20
2022-08-17T09:20:05.187Z,72.60
2022-08-17T09:22:42.801Z,72.00
2022-08-17T09:25:17.929Z,71.00
2022-08-17T09:27:53.835Z,69.10
2022-08-17T09:30:23.725Z,69.40
2022-08-17T09:33:04.621Z,68.70
2022-08-17T09:35:39.677Z,68.20
2022-08-17T09:38:29.136Z,70.20
2022-08-17T09:41:19.916Z,71.00
2022-08-17T09:43:56.610Z,70.60
2022-08-17T09:46:43.559Z,70.60
2022-08-17T09:49:26.455Z,71.30
2022-08-17T09:52:08.629Z,71.60
2022-08-17T09:54:40.937Z,73.40
2022-08-17T09:57:30.765Z,73.90
2022-08-17T10:00:00.949Z,74.20
2022-08-17T10:02:41.314Z,74.40
2022-08-17T10:05:21.690Z,74.30
2022-08-17T10:08:01.902Z,74.20
2022-08-17T10:10:56.653Z,74.20
2022-08-17T10:14:02.086Z,74.30
2022-08-17T10:17:02.769Z,74.60
2022-08-17T10:19:35.692Z,74.90
2022-08-17T10:22:43.199Z,74.90
2022-08-17T10:25:53.649Z,72.40
2022-08-17T10:28:27.375Z,73.10
2022-08-17T10:31:30.747Z,72.80
2022-08-17T10:34:29.385Z,72.80
2022-08-17T10:37:21.646Z,72.30
2022-08-17T10:39:59.342Z,72.50
2022-08-17T10:42:33.282Z,72.40
2022-08-17T10:45:28.137Z,72.50
2022-08-17T10:48:21.940Z,72.50
2022-08-17T10:51:01.772Z,72.60
2022-08-17T10:53:43.531Z,72.00
2022-08-17T10:56:13.091Z,72.10
2022-08-17T10:59:00.295Z,72.20
2022-08-17T11:01:33.010Z,72.50
2022-08-17T11:04:25.185Z,72.40
2022-08-17T11:07:19.603Z,72.00
2022-08-17T11:10:05.089Z,72.30
2022-08-17T11:12:52.103Z,72.00
2022-08-17T11:15:47.383Z,72.50
2022-08-17T11:18:37.023Z,72.10
2022-08-17T11:21:15.863Z,71.30
2022-08-17T11:24:17.346Z,71.30
2022-08-17T11:27:00.790Z,71.90
2022-08-17T11:29:53.587Z,71.60
2022-08-17T11:32:33.666Z,71.40
2022-08-17T11:35:21.102Z,71.60
2022-08-17T11:38:02.936Z,72.20
2022-08-17T11:41:02.143Z,72.60
2022-08-17T11:43:43.353Z,72.50
2022-08-17T11:46:21.958Z,74.00
2022-08-17T11:49:38.047Z,73.20
2022-08-17T11:52:05.194Z,73.50
2022-08-17T11:54:37.915Z,74.60
2022-08-17T11:57:26.440Z,74.00
2022-08-17T11:59:59.201Z,74.00
2022-08-17T12:02:31.743Z,74.60
2022-08-17T12:05:05.193Z,74.90
2022-08-17T12:07:54.327Z,74.90
2022-08-17T12:10:32.286Z,75.10
2022-08-17T12:13:05.857Z,75.30
2022-08-17T12:15:42.333Z,75.10
2022-08-17T12:18:18.076Z,75.10
2022-08-17T12:20:56.534Z,75.10
2022-08-17T12:23:39.352Z,75.30
2022-08-17T12:26:20.632Z,75.60
2022-08-17T12:28:50.161Z,75.90
2022-08-17T12:31:34.627Z,76.70
2022-08-17T12:34:05.248Z,77.20
2022-08-17T12:36:33.489Z,77.30
2022-08-17T12:39:12.955Z,77.30
2022-08-17T12:41:44.900Z,77.20
2022-08-17T12:44:12.156Z,77.30
2022-08-17T12:46:53.176Z,77.40
2022-08-17T12:49:29.894Z,77.50
2022-08-17T12:52:19.695Z,77.70
2022-08-17T12:55:00.345Z,77.40
2022-08-17T12:57:31.207Z,77.10
2022-08-17T13:00:17.499Z,77.00
2022-08-17T13:02:46.976Z,77.00
2022-08-17T13:05:35.947Z,77.10
2022-08-17T13:08:17.228Z,77.00
2022-08-17T13:10:53.382Z,77.20
2022-08-17T13:13:23.454Z,77.30
2022-08-17T13:16:09.393Z,76.70
2022-08-17T13:18:48.959Z,76.80
2022-08-17T13:21:30.340Z,77.00
2022-08-17T13:24:03.501Z,76.40
2022-08-17T13:26:37.728Z,76.60
2022-08-17T13:29:16.595Z,76.40
2022-08-17T13:31:52.249Z,76.10
2022-08-17T13:34:26.656Z,77.00
2022-08-17T13:37:32.598Z,75.80
2022-08-17T13:40:08.168Z,76.70
2022-08-17T13:42:50.363Z,77.30
2022-08-17T13:45:35.984Z,77.30
2022-08-17T13:48:21.820Z,77.40
2022-08-17T13:50:54.661Z,77.70
2022-08-17T13:53:47.522Z,78.00
2022-08-17T13:56:37.385Z,78.40
2022-08-17T13:59:12.233Z,78.40
2022-08-17T14:01:43.929Z,79.00
2022-08-17T14:04:16.659Z,79.50
2022-08-17T14:06:54.762Z,79.10
2022-08-17T14:09:28.238Z,78.80
2022-08-17T14:11:56.834Z,78.90
2022-08-17T14:14:24.471Z,79.20
2022-08-17T14:16:52.591Z,78.90
2022-08-17T14:19:21.837Z,78.80
2022-08-17T14:21:49.142Z,78.90
2022-08-17T14:24:21.579Z,78.40
2022-08-17T14:26:49.258Z,78.50
2022-08-17T14:29:15.992Z,78.30
2022-08-17T14:31:42.806Z,78.30
2022-08-17T14:34:20.366Z,78.10
2022-08-17T14:36:48.675Z,78.30
2022-08-17T14:39:16.633Z,78.10
2022-08-17T14:41:43.682Z,77.60
2022-08-17T14:44:12.417Z,77.70
2022-08-17T14:46:44.129Z,77.30
2022-08-17T14:49:12.729Z,77.90
2022-08-17T14:51:43.922Z,76.80
2022-08-17T14:54:29.415Z,77.30
2022-08-17T14:57:22.797Z,78.00
2022-08-17T14:59:47.179Z,77.90
2022-08-17T15:02:14.986Z,78.20
2022-08-17T15:04:45.499Z,78.80
2022-08-17T15:07:12.503Z,78.70
2022-08-17T15:09:39.186Z,78.10
2022-08-17T15:12:06.659Z,78.50
2022-08-17T15:14:35.377Z,78.70
2022-08-17T15:17:03.642Z,78.30
2022-08-17T15:19:30.413Z,78.30
2022-08-17T15:21:57.325Z,77.80
2022-08-17T15:24:24.013Z,78.70
2022-08-17T15:26:51.447Z,77.90
2022-08-17T15:29:18.354Z,77.60
2022-08-17T15:31:45.032Z,77.10
2022-08-17T15:34:11.899Z,76.90
2022-08-17T15:36:38.920Z,76.70
2022-08-17T15:39:19.203Z,76.80
2022-08-17T15:41:47.258Z,76.80
2022-08-17T15:44:32.618Z,76.80
2022-08-17T15:47:01.934Z,77.00
2022-08-17T15:49:28.602Z,76.60
2022-08-17T15:51:55.522Z,76.10
2022-08-17T15:54:23.325Z,76.40
2022-08-17T15:56:50.557Z,76.80
2022-08-17T15:59:17.271Z,76.80
2022-08-17T16:03:14.515Z,77.20
2022-08-17T16:04:31.756Z,77.20
2022-08-17T16:06:59.660Z,77.00
2022-08-17T16:09:26.882Z,77.00
2022-08-17T16:11:55.734Z,77.30
2022-08-17T16:14:24.222Z,77.50
2022-08-17T16:16:51.618Z,77.40
2022-08-17T16:19:18.278Z,77.30
2022-08-17T16:21:44.966Z,77.40
2022-08-17T16:24:13.728Z,77.50
2022-08-17T16:26:42.224Z,77.50
2022-08-17T16:29:09.443Z,77.30
2022-08-17T16:31:37.658Z,77.40
2022-08-17T16:34:17.136Z,77.30
2022-08-17T16:36:55.128Z,77.20
2022-08-17T16:39:25.424Z,77.20
2022-08-17T16:41:52.183Z,77.10
2022-08-17T16:44:20.847Z,77.00
2022-08-17T16:46:49.040Z,76.80
2022-08-17T16:49:27.617Z,76.90
2022-08-17T16:52:04.280Z,76.80
2022-08-17T16:54:31.008Z,76.70
2022-08-17T16:56:57.692Z,76.90
2022-08-17T16:59:31.281Z,77.00
2022-08-17T17:02:11.283Z,76.80
2022-08-17T17:04:45.353Z,76.90
2022-08-17T17:07:49.576Z,77.20
2022-08-17T17:10:24.058Z,77.20
2022-08-17T17:13:02.835Z,77.50
2022-08-17T17:15:53.478Z,77.50
2022-08-17T17:18:26.378Z,77.50
2022-08-17T17:20:57.024Z,77.60
2022-08-17T17:23:36.186Z,77.60
2022-08-17T17:26:19.020Z,77.30
2022-08-17T17:29:00.758Z,77.10
2022-08-17T17:31:38.068Z,77.10
2022-08-17T17:34:07.613Z,76.80
2022-08-17T17:36:53.910Z,77.30
2022-08-17T17:39:20.567Z,76.80
2022-08-17T17:41:58.985Z,76.60
2022-08-17T17:44:30.385Z,76.80
2022-08-17T17:46:58.376Z,77.10
2022-08-17T17:49:30.149Z,76.80
2022-08-17T17:52:12.360Z,77.40
2022-08-17T17:55:01.994Z,77.40
2022-08-17T17:57:40.447Z,77.50
2022-08-17T18:00:14.001Z,77.60
2022-08-17T18:03:06.842Z,77.80
2022-08-17T18:05:46.605Z,77.90
2022-08-17T18:08:16.555Z,78.10
2022-08-17T18:10:54.738Z,79.40
2022-08-17T18:13:52.019Z,78.10
2022-08-17T18:16:19.199Z,78.00
2022-08-17T18:18:52.136Z,78.10
2022-08-17T18:21:24.246Z,77.90
2022-08-17T18:24:02.029Z,77.80
2022-08-17T18:26:45.074Z,78.00
2022-08-17T18:29:31.494Z,78.10
2022-08-17T18:32:23.320Z,78.00
2022-08-17T18:35:15.886Z,78.10
2022-08-17T18:37:48.745Z,78.20
2022-08-17T18:40:19.011Z,78.50
2022-08-17T18:42:56.641Z,78.80
2022-08-17T18:45:41.482Z,78.70
2022-08-17T18:48:26.896Z,78.60
2022-08-17T18:51:15.583Z,78.60
2022-08-17T18:53:42.251Z,78.90
2022-08-17T18:56:23.052Z,79.50
2022-08-17T18:59:00.766Z,79.70
2022-08-17T19:01:41.930Z,79.80
2022-08-17T19:04:40.214Z,80.20
2022-08-17T19:07:30.141Z,80.80
2022-08-17T19:10:06.818Z,80.70
2022-08-17T19:12:38.044Z,80.40
2022-08-17T19:15:07.764Z,80.40
2022-08-17T19:17:46.743Z,80.20
2022-08-17T19:20:41.603Z,80.00
2022-08-17T19:23:40.790Z,79.80
2022-08-17T19:26:53.337Z,79.70
2022-08-17T19:29:36.895Z,79.60
2022-08-17T19:32:06.387Z,79.30
2022-08-17T19:34:35.599Z,79.30
2022-08-17T19:37:06.820Z,79.20
2022-08-17T19:39:55.247Z,79.40
2022-08-17T19:42:37.151Z,79.20
2022-08-17T19:45:29.249Z,78.60
2022-08-17T19:48:12.331Z,79.10
2022-08-17T19:50:54.938Z,79.20
2022-08-17T19:54:04.379Z,79.80
2022-08-17T19:56:42.054Z,80.20
2022-08-17T19:59:35.772Z,80.80
2022-08-17T20:02:18.929Z,80.60
2022-08-17T20:04:49.147Z,79.80
2022-08-17T20:07:22.017Z,79.70
2022-08-17T20:10:08.143Z,79.50
2022-08-17T20:12:38.734Z,79.30
2022-08-17T20:15:08.731Z,79.40
2022-08-17T20:17:41.396Z,79.40
2022-08-17T20:20:29.864Z,79.60
2022-08-17T20:23:14.991Z,79.50
2022-08-17T20:25:57.317Z,79.80
2022-08-17T20:28:27.901Z,80.00
2022-08-17T20:30:55.126Z,80.60
2022-08-17T20:33:33.076Z,80.00
2022-08-17T20:36:14.326Z,79.90
2022-08-17T20:38:41.042Z,80.20
2022-08-17T20:41:12.622Z,81.40
2022-08-17T20:43:39.288Z,80.60
2022-08-17T20:46:51.411Z,80.60
2022-08-17T20:49:27.444Z,80.50
2022-08-17T20:52:11.088Z,80.70
2022-08-17T20:54:50.525Z,80.90
2022-08-17T20:57:32.463Z,80.90
2022-08-17T21:00:05.260Z,81.00
2022-08-17T21:02:32.799Z,81.10
2022-08-17T21:05:06.896Z,81.20
2022-08-17T21:07:43.721Z,81.00
2022-08-17T21:10:17.940Z,81.00
2022-08-17T21:13:08.212Z,81.00
2022-08-17T21:15:56.982Z,80.70
2022-08-17T21:18:52.493Z,80.90
2022-08-17T21:21:44.725Z,80.80
2022-08-17T21:24:31.240Z,81.00
2022-08-17T21:27:23.643Z,81.00
2022-08-17T21:30:02.350Z,80.90
2022-08-17T21:32:40.480Z,80.90
2022-08-17T21:35:22.655Z,81.00
2022-08-17T21:37:53.234Z,81.10
2022-08-17T21:40:28.978Z,81.20
2022-08-17T21:43:23.329Z,81.00
2022-08-17T21:46:04.279Z,80.70
2022-08-17T21:48:42.001Z,81.10
2022-08-17T21:51:18.868Z,81.10
2022-08-17T21:53:51.979Z,81.00
2022-08-17T21:56:26.116Z,81.00
2022-08-17T21:59:13.002Z,81.00
2022-08-17T22:01:42.759Z,80.90
2022-08-17T22:04:12.408Z,81.10
2022-08-17T22:06:43.075Z,81.00
2022-08-17T22:09:40.287Z,81.00
2022-08-17T22:12:19.312Z,81.10
2022-08-17T22:14:57.802Z,80.70
2022-08-17T22:17:30.415Z,80.70
2022-08-17T22:20:14.349Z,80.80
2022-08-17T22:23:08.710Z,80.90
2022-08-17T22:25:40.562Z,80.90
2022-08-17T22:28:10.405Z,81.00
2022-08-17T22:30:59.696Z,81.10
2022-08-17T22:33:41.751Z,80.90
2022-08-17T22:36:31.455Z,81.00
2022-08-17T22:39:20.620Z,81.10
2022-08-17T22:41:48.124Z,81.20
2022-08-17T22:44:25.829Z,81.10
2022-08-17T22:47:11.181Z,81.30
2022-08-17T22:50:02.307Z,81.30
2022-08-17T22:53:02.542Z,81.50
2022-08-17T22:55:52.122Z,81.40
2022-08-17T22:58:40.499Z,81.20
2022-08-17T23:01:36.361Z,81.20
2022-08-17T23:04:06.952Z,81.10
2022-08-17T23:06:35.891Z,81.30
2022-08-17T23:09:05.732Z,81.40
2022-08-17T23:11:48.593Z,81.20
2022-08-17T23:14:19.030Z,81.20
2022-08-17T23:16:46.604Z,81.40
2022-08-17T23:19:15.796Z,81.40
2022-08-17T23:21:44.829Z,81.40
2022-08-17T23:24:19.394Z,81.40
2022-08-17T23:26:46.236Z,81.30
2022-08-17T23:29:13.182Z,81.30
2022-08-17T23:31:40.534Z,82.10
2022-08-17T23:34:12.723Z,81.30
2022-08-17T23:36:39.475Z,81.50
2022-08-17T23:39:07.274Z,81.70
2022-08-17T23:41:38.527Z,81.80
2022-08-17T23:44:06.423Z,81.80
2022-08-17T23:46:34.476Z,81.70
2022-08-17T23:49:01.225Z,81.90
2022-08-17T23:51:35.713Z,81.70
2022-08-17T23:54:11.650Z,81.60
2022-08-17T23:56:47.341Z,81.40
2022-08-17T23:59:15.668Z,81.60
